sensor_id;sensor_type;location;lat;lon;timestamp;pressure;altitude;pressure_sealevel;temperature;humidity
59787;BME280;45672;51.612;5.536;2022-08-24T00:01:07;101513.09;;;22.11;76.50
59787;BME280;45672;51.612;5.536;2022-08-24T00:03:34;101515.81;;;22.11;76.94
59787;BME280;45672;51.612;5.536;2022-08-24T00:06:00;101517.47;;;22.12;76.84
59787;BME280;45672;51.612;5.536;2022-08-24T00:08:26;101521.00;;;22.12;76.58
59787;BME280;45672;51.612;5.536;2022-08-24T00:10:52;101512.28;;;22.10;76.73
59787;BME280;45672;51.612;5.536;2022-08-24T00:13:17;101526.88;;;22.02;77.39
59787;BME280;45672;51.612;5.536;2022-08-24T00:15:43;101523.16;;;21.97;78.07
59787;BME280;45672;51.612;5.536;2022-08-24T00:18:09;101527.31;;;21.99;77.49
59787;BME280;45672;51.612;5.536;2022-08-24T00:20:35;101533.56;;;22.00;78.17
59787;BME280;45672;51.612;5.536;2022-08-24T00:23:00;101533.38;;;21.95;78.08
59787;BME280;45672;51.612;5.536;2022-08-24T00:25:26;101534.84;;;21.91;78.19
59787;BME280;45672;51.612;5.536;2022-08-24T00:27:51;101537.38;;;21.85;78.09
59787;BME280;45672;51.612;5.536;2022-08-24T00:30:18;101531.56;;;21.82;78.92
59787;BME280;45672;51.612;5.536;2022-08-24T00:32:45;101534.25;;;21.82;78.95
59787;BME280;45672;51.612;5.536;2022-08-24T00:35:12;101535.69;;;21.84;78.55
59787;BME280;45672;51.612;5.536;2022-08-24T00:37:38;101524.03;;;21.84;78.55
59787;BME280;45672;51.612;5.536;2022-08-24T00:40:07;101533.41;;;21.81;78.65
59787;BME280;45672;51.612;5.536;2022-08-24T00:42:37;101536.56;;;21.78;79.15
59787;BME280;45672;51.612;5.536;2022-08-24T00:45:04;101538.00;;;21.81;79.46
59787;BME280;45672;51.612;5.536;2022-08-24T00:50:22;101534.88;;;21.77;79.09
59787;BME280;45672;51.612;5.536;2022-08-24T00:52:55;101528.63;;;21.77;79.36
59787;BME280;45672;51.612;5.536;2022-08-24T00:55:46;101534.50;;;21.74;78.41
59787;BME280;45672;51.612;5.536;2022-08-24T00:58:19;101543.25;;;21.69;79.61
59787;BME280;45672;51.612;5.536;2022-08-24T01:00:49;101541.81;;;21.66;79.93
59787;BME280;45672;51.612;5.536;2022-08-24T01:03:16;101542.41;;;21.68;79.77
59787;BME280;45672;51.612;5.536;2022-08-24T01:05:42;101549.72;;;21.68;79.70
59787;BME280;45672;51.612;5.536;2022-08-24T01:08:09;101552.44;;;21.61;80.79
59787;BME280;45672;51.612;5.536;2022-08-24T01:10:39;101548.47;;;21.64;80.88
59787;BME280;45672;51.612;5.536;2022-08-24T01:13:07;101540.34;;;21.64;80.77
59787;BME280;45672;51.612;5.536;2022-08-24T01:15:37;101536.59;;;21.65;80.24
59787;BME280;45672;51.612;5.536;2022-08-24T01:18:04;101533.91;;;21.65;80.61
59787;BME280;45672;51.612;5.536;2022-08-24T01:20:55;101543.69;;;21.59;80.60
59787;BME280;45672;51.612;5.536;2022-08-24T01:23:47;101536.19;;;21.55;80.33
59787;BME280;45672;51.612;5.536;2022-08-24T01:26:17;101535.13;;;21.49;81.32
59787;BME280;45672;51.612;5.536;2022-08-24T01:28:45;101545.72;;;21.50;81.60
59787;BME280;45672;51.612;5.536;2022-08-24T01:31:11;101547.00;;;21.48;81.94
59787;BME280;45672;51.612;5.536;2022-08-24T01:33:37;101536.78;;;21.43;81.58
59787;BME280;45672;51.612;5.536;2022-08-24T01:36:18;101541.81;;;21.40;81.61
59787;BME280;45672;51.612;5.536;2022-08-24T01:38:45;101541.19;;;21.38;81.94
59787;BME280;45672;51.612;5.536;2022-08-24T01:41:11;101537.03;;;21.35;82.41
59787;BME280;45672;51.612;5.536;2022-08-24T01:43:36;101534.53;;;21.33;81.94
59787;BME280;45672;51.612;5.536;2022-08-24T01:46:02;101526.59;;;21.32;82.47
59787;BME280;45672;51.612;5.536;2022-08-24T01:48:27;101528.09;;;21.28;82.42
59787;BME280;45672;51.612;5.536;2022-08-24T01:50:53;101525.38;;;21.28;82.53
59787;BME280;45672;51.612;5.536;2022-08-24T01:53:18;101524.53;;;21.21;83.00
59787;BME280;45672;51.612;5.536;2022-08-24T01:55:44;101529.94;;;21.21;82.66
59787;BME280;45672;51.612;5.536;2022-08-24T01:58:10;101527.69;;;21.11;83.67
59787;BME280;45672;51.612;5.536;2022-08-24T02:00:36;101526.84;;;21.10;83.84
59787;BME280;45672;51.612;5.536;2022-08-24T02:03:03;101526.84;;;21.10;83.02
59787;BME280;45672;51.612;5.536;2022-08-24T02:05:28;101527.91;;;21.09;83.80
59787;BME280;45672;51.612;5.536;2022-08-24T02:07:54;101524.56;;;21.07;83.74
59787;BME280;45672;51.612;5.536;2022-08-24T02:10:22;101527.69;;;21.04;83.71
59787;BME280;45672;51.612;5.536;2022-08-24T02:12:47;101522.47;;;21.03;84.09
59787;BME280;45672;51.612;5.536;2022-08-24T02:15:34;101524.75;;;20.99;84.14
59787;BME280;45672;51.612;5.536;2022-08-24T02:18:05;101530.16;;;20.99;84.07
59787;BME280;45672;51.612;5.536;2022-08-24T02:20:30;101527.06;;;20.95;84.21
59787;BME280;45672;51.612;5.536;2022-08-24T02:22:56;101539.31;;;20.91;84.52
59787;BME280;45672;51.612;5.536;2022-08-24T02:25:23;101537.88;;;20.89;84.81
59787;BME280;45672;51.612;5.536;2022-08-24T02:27:49;101537.88;;;20.89;85.10
59787;BME280;45672;51.612;5.536;2022-08-24T02:30:14;101544.31;;;20.88;85.25
59787;BME280;45672;51.612;5.536;2022-08-24T02:32:40;101550.78;;;20.87;85.55
59787;BME280;45672;51.612;5.536;2022-08-24T02:35:06;101545.97;;;20.82;85.58
59787;BME280;45672;51.612;5.536;2022-08-24T02:37:33;101548.25;;;20.78;85.72
59787;BME280;45672;51.612;5.536;2022-08-24T02:39:58;101548.69;;;20.75;84.43
59787;BME280;45672;51.612;5.536;2022-08-24T02:42:24;101549.06;;;20.72;84.37
59787;BME280;45672;51.612;5.536;2022-08-24T02:44:49;101544.44;;;20.66;84.41
59787;BME280;45672;51.612;5.536;2022-08-24T02:47:15;101559.25;;;20.70;84.49
59787;BME280;45672;51.612;5.536;2022-08-24T02:49:41;101550.13;;;20.71;85.11
59787;BME280;45672;51.612;5.536;2022-08-24T02:52:07;101552.19;;;20.69;85.31
59787;BME280;45672;51.612;5.536;2022-08-24T02:54:32;101541.97;;;20.64;86.20
59787;BME280;45672;51.612;5.536;2022-08-24T02:56:57;101550.88;;;20.65;85.73
59787;BME280;45672;51.612;5.536;2022-08-24T02:59:22;101552.34;;;20.61;86.09
59787;BME280;45672;51.612;5.536;2022-08-24T03:01:48;101551.50;;;20.60;86.17
59787;BME280;45672;51.612;5.536;2022-08-24T03:04:14;101536.53;;;20.58;86.04
59787;BME280;45672;51.612;5.536;2022-08-24T03:06:40;101548.81;;;20.60;86.11
59787;BME280;45672;51.612;5.536;2022-08-24T03:09:06;101548.81;;;20.60;86.51
59787;BME280;45672;51.612;5.536;2022-08-24T03:11:31;101545.69;;;20.57;86.69
59787;BME280;45672;51.612;5.536;2022-08-24T03:13:57;101547.75;;;20.55;86.27
59787;BME280;45672;51.612;5.536;2022-08-24T03:16:26;101534.25;;;20.55;86.75
59787;BME280;45672;51.612;5.536;2022-08-24T03:18:52;101544.66;;;20.51;86.67
59787;BME280;45672;51.612;5.536;2022-08-24T03:21:17;101548.16;;;20.52;86.85
59787;BME280;45672;51.612;5.536;2022-08-24T03:23:43;101534.44;;;20.53;86.82
59787;BME280;45672;51.612;5.536;2022-08-24T03:26:08;101544.66;;;20.51;86.83
59787;BME280;45672;51.612;5.536;2022-08-24T03:28:34;101539.03;;;20.53;86.56
59787;BME280;45672;51.612;5.536;2022-08-24T03:30:59;101535.88;;;20.49;86.95
59787;BME280;45672;51.612;5.536;2022-08-24T03:33:24;101535.47;;;20.45;86.85
59787;BME280;45672;51.612;5.536;2022-08-24T03:35:50;101531.94;;;20.45;86.75
59787;BME280;45672;51.612;5.536;2022-08-24T03:38:15;101535.88;;;20.42;87.00
59787;BME280;45672;51.612;5.536;2022-08-24T03:40:41;101533.38;;;20.41;87.04
59787;BME280;45672;51.612;5.536;2022-08-24T03:43:07;101528.16;;;20.39;87.38
59787;BME280;45672;51.612;5.536;2022-08-24T03:45:32;101526.91;;;20.35;87.46
59787;BME280;45672;51.612;5.536;2022-08-24T03:47:58;101526.50;;;20.31;87.01
59787;BME280;45672;51.612;5.536;2022-08-24T03:50:23;101535.41;;;20.32;87.01
59787;BME280;45672;51.612;5.536;2022-08-24T03:52:50;101531.03;;;20.24;86.99
59787;BME280;45672;51.612;5.536;2022-08-24T03:55:15;101548.09;;;20.25;86.92
59787;BME280;45672;51.612;5.536;2022-08-24T03:57:40;101548.50;;;20.22;86.98
59787;BME280;45672;51.612;5.536;2022-08-24T04:00:08;101545.56;;;20.17;86.70
59787;BME280;45672;51.612;5.536;2022-08-24T04:02:34;101538.50;;;20.15;86.53
59787;BME280;45672;51.612;5.536;2022-08-24T04:05:00;101537.22;;;20.11;86.40
59787;BME280;45672;51.612;5.536;2022-08-24T04:07:25;101540.97;;;20.10;86.71
59787;BME280;45672;51.612;5.536;2022-08-24T04:09:51;101543.22;;;20.07;86.50
59787;BME280;45672;51.612;5.536;2022-08-24T04:12:16;101546.31;;;20.04;86.79
59787;BME280;45672;51.612;5.536;2022-08-24T04:14:41;101551.09;;;20.02;87.00
59787;BME280;45672;51.612;5.536;2022-08-24T04:17:07;101547.38;;;20.03;87.63
59787;BME280;45672;51.612;5.536;2022-08-24T04:19:33;101545.06;;;20.00;86.87
59787;BME280;45672;51.612;5.536;2022-08-24T04:21:59;101547.13;;;19.97;86.20
59787;BME280;45672;51.612;5.536;2022-08-24T04:24:25;101552.09;;;19.94;86.54
59787;BME280;45672;51.612;5.536;2022-08-24T04:26:51;101554.78;;;19.94;86.90
59787;BME280;45672;51.612;5.536;2022-08-24T04:29:18;101556.47;;;19.95;87.43
59787;BME280;45672;51.612;5.536;2022-08-24T04:31:43;101545.88;;;19.93;87.41
59787;BME280;45672;51.612;5.536;2022-08-24T04:34:10;101552.09;;;19.94;87.60
59787;BME280;45672;51.612;5.536;2022-08-24T04:36:38;101550.25;;;19.94;87.35
59787;BME280;45672;51.612;5.536;2022-08-24T04:39:03;101550.66;;;19.91;88.05
59787;BME280;45672;51.612;5.536;2022-08-24T04:41:29;101552.09;;;19.94;87.57
59787;BME280;45672;51.612;5.536;2022-08-24T04:43:54;101560.84;;;19.96;87.95
59787;BME280;45672;51.612;5.536;2022-08-24T04:46:20;101556.91;;;19.98;87.80
59787;BME280;45672;51.612;5.536;2022-08-24T04:48:46;101560.44;;;19.99;87.94
59787;BME280;45672;51.612;5.536;2022-08-24T04:51:14;101571.66;;;19.96;88.42
59787;BME280;45672;51.612;5.536;2022-08-24T04:53:42;101570.81;;;19.95;88.25
59787;BME280;45672;51.612;5.536;2022-08-24T04:56:10;101572.06;;;20.00;88.12
59787;BME280;45672;51.612;5.536;2022-08-24T04:58:36;101570.44;;;19.98;88.24
59787;BME280;45672;51.612;5.536;2022-08-24T05:01:06;101574.78;;;20.00;88.40
59787;BME280;45672;51.612;5.536;2022-08-24T05:03:32;101572.06;;;20.00;88.14
59787;BME280;45672;51.612;5.536;2022-08-24T05:05:57;101579.34;;;19.99;88.37
59787;BME280;45672;51.612;5.536;2022-08-24T05:08:23;101564.16;;;19.98;88.43
59787;BME280;45672;51.612;5.536;2022-08-24T05:10:48;101562.69;;;19.95;88.24
59787;BME280;45672;51.612;5.536;2022-08-24T05:13:15;101559.63;;;19.98;87.73
59787;BME280;45672;51.612;5.536;2022-08-24T05:15:46;101575.81;;;19.98;87.50
59787;BME280;45672;51.612;5.536;2022-08-24T05:18:13;101570.84;;;20.02;88.30
59787;BME280;45672;51.612;5.536;2022-08-24T05:20:40;101573.78;;;20.07;88.39
59787;BME280;45672;51.612;5.536;2022-08-24T05:23:06;101577.31;;;20.08;88.13
59787;BME280;45672;51.612;5.536;2022-08-24T05:25:31;101573.19;;;20.12;88.33
59787;BME280;45672;51.612;5.536;2022-08-24T05:27:56;101582.56;;;20.16;88.19
59787;BME280;45672;51.612;5.536;2022-08-24T05:30:22;101581.31;;;20.19;88.81
59787;BME280;45672;51.612;5.536;2022-08-24T05:32:47;101582.38;;;20.24;88.73
59787;BME280;45672;51.612;5.536;2022-08-24T05:35:13;101591.75;;;20.28;89.01
59787;BME280;45672;51.612;5.536;2022-08-24T05:37:39;101589.28;;;20.33;88.52
59787;BME280;45672;51.612;5.536;2022-08-24T05:40:07;101586.38;;;20.35;89.12
59787;BME280;45672;51.612;5.536;2022-08-24T05:42:33;101589.28;;;20.33;88.83
59787;BME280;45672;51.612;5.536;2022-08-24T05:44:59;101592.63;;;20.36;88.22
59787;BME280;45672;51.612;5.536;2022-08-24T05:47:24;101589.31;;;20.40;87.92
59787;BME280;45672;51.612;5.536;2022-08-24T05:49:50;101587.47;;;20.47;87.94
59787;BME280;45672;51.612;5.536;2022-08-24T05:52:18;101586.03;;;20.52;87.79
59787;BME280;45672;51.612;5.536;2022-08-24T05:54:43;101587.28;;;20.56;87.47
59787;BME280;45672;51.612;5.536;2022-08-24T05:57:10;101592.69;;;20.56;86.86
59787;BME280;45672;51.612;5.536;2022-08-24T05:59:35;101595.59;;;20.61;86.75
59787;BME280;45672;51.612;5.536;2022-08-24T06:02:00;101594.00;;;20.73;85.91
59787;BME280;45672;51.612;5.536;2022-08-24T06:04:26;101589.66;;;20.79;85.63
59787;BME280;45672;51.612;5.536;2022-08-24T06:06:53;101598.41;;;20.88;85.96
59787;BME280;45672;51.612;5.536;2022-08-24T06:09:18;101598.22;;;20.96;84.88
59787;BME280;45672;51.612;5.536;2022-08-24T06:11:44;101591.16;;;21.08;84.22
59787;BME280;45672;51.612;5.536;2022-08-24T06:14:15;101603.66;;;21.23;84.19
59787;BME280;45672;51.612;5.536;2022-08-24T06:16:43;101600.34;;;21.34;83.58
59787;BME280;45672;51.612;5.536;2022-08-24T06:19:11;101608.00;;;21.50;83.20
59787;BME280;45672;51.612;5.536;2022-08-24T06:21:37;101609.72;;;21.65;82.89
59787;BME280;45672;51.612;5.536;2022-08-24T06:24:05;101605.31;;;21.84;81.89
59787;BME280;45672;51.612;5.536;2022-08-24T06:26:31;101610.88;;;22.02;81.55
59787;BME280;45672;51.612;5.536;2022-08-24T06:29:16;101615.41;;;22.29;80.54
59787;BME280;45672;51.612;5.536;2022-08-24T06:31:44;101617.78;;;22.57;79.35
59787;BME280;45672;51.612;5.536;2022-08-24T06:34:12;101619.88;;;22.94;78.17
59787;BME280;45672;51.612;5.536;2022-08-24T06:36:37;101614.72;;;23.24;76.10
59787;BME280;45672;51.612;5.536;2022-08-24T06:39:03;101619.16;;;23.87;73.92
59787;BME280;45672;51.612;5.536;2022-08-24T06:41:29;101626.84;;;24.46;71.98
59787;BME280;45672;51.612;5.536;2022-08-24T06:43:55;101628.06;;;25.11;69.20
59787;BME280;45672;51.612;5.536;2022-08-24T06:46:20;101625.78;;;25.74;65.83
59787;BME280;45672;51.612;5.536;2022-08-24T06:48:46;101624.00;;;26.03;65.70
59787;BME280;45672;51.612;5.536;2022-08-24T06:51:16;101632.59;;;26.64;63.75
59787;BME280;45672;51.612;5.536;2022-08-24T06:53:42;101629.13;;;27.44;61.33
59787;BME280;45672;51.612;5.536;2022-08-24T06:56:08;101631.28;;;28.20;58.92
59787;BME280;45672;51.612;5.536;2022-08-24T06:58:34;101640.84;;;28.89;56.76
59787;BME280;45672;51.612;5.536;2022-08-24T07:01:11;101638.75;;;29.29;57.94
59787;BME280;45672;51.612;5.536;2022-08-24T07:03:36;101631.41;;;29.77;52.88
59787;BME280;45672;51.612;5.536;2022-08-24T07:06:03;101643.16;;;30.20;52.69
59787;BME280;45672;51.612;5.536;2022-08-24T07:08:30;101637.59;;;30.73;50.21
59787;BME280;45672;51.612;5.536;2022-08-24T07:10:56;101637.88;;;30.98;48.19
59787;BME280;45672;51.612;5.536;2022-08-24T07:13:21;101645.84;;;31.45;48.12
59787;BME280;45672;51.612;5.536;2022-08-24T07:15:46;101654.00;;;32.02;45.72
59787;BME280;45672;51.612;5.536;2022-08-24T07:18:16;101649.47;;;32.42;45.19
59787;BME280;45672;51.612;5.536;2022-08-24T07:20:42;101653.00;;;32.98;43.88
59787;BME280;45672;51.612;5.536;2022-08-24T07:23:09;101658.19;;;33.39;42.19
59787;BME280;45672;51.612;5.536;2022-08-24T07:25:36;101656.75;;;33.71;41.38
59787;BME280;45672;51.612;5.536;2022-08-24T07:28:01;101651.56;;;33.94;40.63
59787;BME280;45672;51.612;5.536;2022-08-24T07:30:27;101643.25;;;34.18;39.21
59787;BME280;45672;51.612;5.536;2022-08-24T07:32:54;101654.97;;;34.34;38.45
59787;BME280;45672;51.612;5.536;2022-08-24T07:35:20;101650.16;;;35.16;37.28
59787;BME280;45672;51.612;5.536;2022-08-24T07:37:46;101651.88;;;35.45;36.26
59787;BME280;45672;51.612;5.536;2022-08-24T07:40:11;101658.31;;;35.87;35.46
59787;BME280;45672;51.612;5.536;2022-08-24T07:42:37;101649.34;;;36.32;34.64
59787;BME280;45672;51.612;5.536;2022-08-24T07:45:04;101656.44;;;36.74;34.11
59787;BME280;45672;51.612;5.536;2022-08-24T07:47:30;101651.38;;;36.90;33.51
59787;BME280;45672;51.612;5.536;2022-08-24T07:49:55;101656.72;;;37.09;32.41
59787;BME280;45672;51.612;5.536;2022-08-24T07:52:20;101657.94;;;37.49;31.69
59787;BME280;45672;51.612;5.536;2022-08-24T07:54:46;101650.41;;;37.81;31.58
59787;BME280;45672;51.612;5.536;2022-08-24T07:57:11;101656.50;;;37.91;31.27
59787;BME280;45672;51.612;5.536;2022-08-24T07:59:36;101653.84;;;38.44;30.54
59787;BME280;45672;51.612;5.536;2022-08-24T08:02:03;101651.75;;;38.67;30.65
59787;BME280;45672;51.612;5.536;2022-08-24T08:04:29;101652.69;;;39.06;29.42
59787;BME280;45672;51.612;5.536;2022-08-24T08:06:55;101652.72;;;39.54;28.22
59787;BME280;45672;51.612;5.536;2022-08-24T08:09:21;101650.09;;;39.66;27.61
59787;BME280;45672;51.612;5.536;2022-08-24T08:11:46;101656.75;;;40.33;27.26
59787;BME280;45672;51.612;5.536;2022-08-24T08:14:11;101660.59;;;40.71;26.22
59787;BME280;45672;51.612;5.536;2022-08-24T08:16:39;101666.63;;;40.94;25.92
59787;BME280;45672;51.612;5.536;2022-08-24T08:19:04;101664.63;;;41.28;25.25
59787;BME280;45672;51.612;5.536;2022-08-24T08:21:30;101669.44;;;41.40;24.40
59787;BME280;45672;51.612;5.536;2022-08-24T08:24:14;101669.94;;;41.79;24.24
59787;BME280;45672;51.612;5.536;2022-08-24T08:26:41;101670.75;;;41.80;23.42
59787;BME280;45672;51.612;5.536;2022-08-24T08:29:08;101673.88;;;42.03;23.54
59787;BME280;45672;51.612;5.536;2022-08-24T08:31:35;101677.59;;;42.32;23.36
59787;BME280;45672;51.612;5.536;2022-08-24T08:34:02;101667.63;;;42.47;22.94
59787;BME280;45672;51.612;5.536;2022-08-24T08:36:29;101672.66;;;42.82;22.51
59787;BME280;45672;51.612;5.536;2022-08-24T08:38:54;101669.94;;;43.14;22.44
59787;BME280;45672;51.612;5.536;2022-08-24T08:50:03;101674.13;;;44.19;21.92
59787;BME280;45672;51.612;5.536;2022-08-24T08:57:50;101681.69;;;46.74;19.09
59787;BME280;45672;51.612;5.536;2022-08-24T09:00:23;101682.34;;;46.97;17.91
59787;BME280;45672;51.612;5.536;2022-08-24T09:03:13;101683.78;;;46.80;18.22
59787;BME280;45672;51.612;5.536;2022-08-24T09:05:57;101686.09;;;46.41;19.82
59787;BME280;45672;51.612;5.536;2022-08-24T09:14:49;101685.22;;;46.63;19.53
59787;BME280;45672;51.612;5.536;2022-08-24T09:23:02;101681.59;;;46.63;18.67
59787;BME280;45672;51.612;5.536;2022-08-24T09:25:50;101683.25;;;46.68;18.14
59787;BME280;45672;51.612;5.536;2022-08-24T09:31:18;101677.44;;;47.32;15.92
59787;BME280;45672;51.612;5.536;2022-08-24T09:36:40;101686.47;;;47.48;16.57
59787;BME280;45672;51.612;5.536;2022-08-24T09:39:27;101688.66;;;47.21;17.75
59787;BME280;45672;51.612;5.536;2022-08-24T09:44:55;101687.00;;;46.18;18.54
59787;BME280;45672;51.612;5.536;2022-08-24T09:53:37;101682.63;;;45.94;18.76
59787;BME280;45672;51.612;5.536;2022-08-24T10:06:42;101671.28;;;42.10;22.17
59787;BME280;45672;51.612;5.536;2022-08-24T10:15:04;101673.81;;;45.69;19.03
59787;BME280;45672;51.612;5.536;2022-08-24T10:22:57;101670.47;;;47.15;17.70
59787;BME280;45672;51.612;5.536;2022-08-24T10:25:50;101663.81;;;46.59;17.82
59787;BME280;45672;51.612;5.536;2022-08-24T10:28:43;101656.31;;;44.28;20.87
59787;BME280;45672;51.612;5.536;2022-08-24T10:31:17;101661.50;;;40.96;22.92
59787;BME280;45672;51.612;5.536;2022-08-24T10:36:30;101648.97;;;37.92;26.92
59787;BME280;45672;51.612;5.536;2022-08-24T10:39:29;101647.72;;;37.67;27.55
59787;BME280;45672;51.612;5.536;2022-08-24T10:42:39;101640.50;;;37.03;28.02
59787;BME280;45672;51.612;5.536;2022-08-24T10:51:23;101632.69;;;35.95;29.04
59787;BME280;45672;51.612;5.536;2022-08-24T10:53:54;101629.97;;;35.76;29.68
59787;BME280;45672;51.612;5.536;2022-08-24T10:56:30;101633.63;;;35.11;29.51
59787;BME280;45672;51.612;5.536;2022-08-24T11:04:28;101622.94;;;34.33;31.20
59787;BME280;45672;51.612;5.536;2022-08-24T11:07:17;101629.78;;;34.35;30.76
59787;BME280;45672;51.612;5.536;2022-08-24T11:09:49;101620.13;;;34.14;31.08
59787;BME280;45672;51.612;5.536;2022-08-24T11:14:54;101621.00;;;33.90;31.59
59787;BME280;45672;51.612;5.536;2022-08-24T11:17:23;101623.75;;;33.61;31.80
59787;BME280;45672;51.612;5.536;2022-08-24T11:19:50;101619.22;;;33.75;31.54
59787;BME280;45672;51.612;5.536;2022-08-24T11:22:30;101615.69;;;34.13;31.64
59787;BME280;45672;51.612;5.536;2022-08-24T11:24:58;101611.59;;;34.34;31.58
59787;BME280;45672;51.612;5.536;2022-08-24T11:27:34;101613.00;;;34.70;31.39
59787;BME280;45672;51.612;5.536;2022-08-24T11:30:10;101617.84;;;34.97;30.63
59787;BME280;45672;51.612;5.536;2022-08-24T11:32:51;101616.47;;;35.14;30.13
59787;BME280;45672;51.612;5.536;2022-08-24T11:38:21;101604.94;;;34.93;30.73
59787;BME280;45672;51.612;5.536;2022-08-24T11:44:01;101606.44;;;34.04;32.07
59787;BME280;45672;51.612;5.536;2022-08-24T11:49:39;101603.34;;;34.10;32.40
59787;BME280;45672;51.612;5.536;2022-08-24T11:52:25;101598.91;;;33.90;33.06
59787;BME280;45672;51.612;5.536;2022-08-24T11:55:03;101598.78;;;33.76;32.31
59787;BME280;45672;51.612;5.536;2022-08-24T11:57:39;101593.47;;;33.80;32.16
59787;BME280;45672;51.612;5.536;2022-08-24T12:00:11;101598.66;;;33.87;32.63
59787;BME280;45672;51.612;5.536;2022-08-24T12:02:47;101595.66;;;33.83;32.39
59787;BME280;45672;51.612;5.536;2022-08-24T12:13:28;101587.56;;;34.11;32.11
59787;BME280;45672;51.612;5.536;2022-08-24T12:19:02;101588.13;;;33.89;32.67
59787;BME280;45672;51.612;5.536;2022-08-24T12:21:31;101588.09;;;33.40;33.40
59787;BME280;45672;51.612;5.536;2022-08-24T12:24:04;101588.53;;;32.94;34.31
59787;BME280;45672;51.612;5.536;2022-08-24T12:26:45;101591.25;;;32.59;35.17
59787;BME280;45672;51.612;5.536;2022-08-24T12:29:22;101587.91;;;32.18;35.53
59787;BME280;45672;51.612;5.536;2022-08-24T12:32:27;101583.78;;;32.20;35.59
59787;BME280;45672;51.612;5.536;2022-08-24T12:35:03;101581.34;;;31.98;36.49
59787;BME280;45672;51.612;5.536;2022-08-24T12:37:39;101588.50;;;32.04;36.46
59787;BME280;45672;51.612;5.536;2022-08-24T12:42:51;101583.66;;;31.75;36.59
59787;BME280;45672;51.612;5.536;2022-08-24T12:45:19;101582.06;;;31.64;37.45
59787;BME280;45672;51.612;5.536;2022-08-24T12:48:17;101587.53;;;31.74;37.11
59787;BME280;45672;51.612;5.536;2022-08-24T12:58:58;101572.06;;;31.89;36.20
59787;BME280;45672;51.612;5.536;2022-08-24T13:01:28;101568.75;;;31.87;36.03
59787;BME280;45672;51.612;5.536;2022-08-24T13:04:05;101564.81;;;32.08;36.23
59787;BME280;45672;51.612;5.536;2022-08-24T13:09:30;101571.19;;;31.99;35.69
59787;BME280;45672;51.612;5.536;2022-08-24T13:11:56;101572.56;;;32.01;36.28
59787;BME280;45672;51.612;5.536;2022-08-24T13:14:25;101570.34;;;31.98;36.54
59787;BME280;45672;51.612;5.536;2022-08-24T13:30:02;101561.28;;;32.47;35.26
59787;BME280;45672;51.612;5.536;2022-08-24T13:32:39;101554.31;;;32.60;34.78
59787;BME280;45672;51.612;5.536;2022-08-24T13:43:47;101552.03;;;32.73;34.13
59787;BME280;45672;51.612;5.536;2022-08-24T13:46:27;101545.22;;;32.60;33.86
59787;BME280;45672;51.612;5.536;2022-08-24T13:48:57;101554.91;;;32.52;33.72
59787;BME280;45672;51.612;5.536;2022-08-24T13:54:03;101545.28;;;32.05;34.22
59787;BME280;45672;51.612;5.536;2022-08-24T13:56:37;101545.56;;;31.98;34.75
59787;BME280;45672;51.612;5.536;2022-08-24T14:02:11;101544.13;;;32.11;34.56
59787;BME280;45672;51.612;5.536;2022-08-24T14:04:53;101538.16;;;31.99;34.53
59787;BME280;45672;51.612;5.536;2022-08-24T14:10:59;101547.34;;;31.78;34.59
59787;BME280;45672;51.612;5.536;2022-08-24T14:13:55;101531.13;;;31.72;35.23
59787;BME280;45672;51.612;5.536;2022-08-24T14:24:45;101538.44;;;31.97;34.45
59787;BME280;45672;51.612;5.536;2022-08-24T14:35:42;101521.81;;;32.23;33.89
59787;BME280;45672;51.612;5.536;2022-08-24T14:40:56;101506.84;;;32.34;34.24
59787;BME280;45672;51.612;5.536;2022-08-24T14:49:17;101510.59;;;32.48;33.82
59787;BME280;45672;51.612;5.536;2022-08-24T14:56:03;101492.00;;;32.30;33.85
59787;BME280;45672;51.612;5.536;2022-08-24T14:59:09;101505.22;;;32.28;33.93
59787;BME280;45672;51.612;5.536;2022-08-24T15:01:42;101503.22;;;32.39;34.35
59787;BME280;45672;51.612;5.536;2022-08-24T15:04:33;101496.66;;;32.35;34.48
59787;BME280;45672;51.612;5.536;2022-08-24T15:09:44;101490.16;;;32.55;33.02
59787;BME280;45672;51.612;5.536;2022-08-24T15:12:37;101486.19;;;32.71;33.21
59787;BME280;45672;51.612;5.536;2022-08-24T15:29:15;101473.13;;;32.47;33.31
59787;BME280;45672;51.612;5.536;2022-08-24T15:31:42;101478.84;;;32.56;32.88
59787;BME280;45672;51.612;5.536;2022-08-24T15:34:18;101469.88;;;32.45;32.94
59787;BME280;45672;51.612;5.536;2022-08-24T15:36:57;101474.53;;;32.45;33.04
59787;BME280;45672;51.612;5.536;2022-08-24T15:39:24;101475.38;;;32.45;33.66
59787;BME280;45672;51.612;5.536;2022-08-24T15:41:50;101465.50;;;32.39;33.57
59787;BME280;45672;51.612;5.536;2022-08-24T15:44:22;101476.97;;;32.52;34.18
59787;BME280;45672;51.612;5.536;2022-08-24T15:46:51;101471.84;;;32.40;33.47
59787;BME280;45672;51.612;5.536;2022-08-24T15:49:21;101477.66;;;32.33;33.21
59787;BME280;45672;51.612;5.536;2022-08-24T15:51:54;101475.16;;;32.37;33.36
59787;BME280;45672;51.612;5.536;2022-08-24T16:11:07;101465.16;;;32.06;33.22
59787;BME280;45672;51.612;5.536;2022-08-24T16:13:43;101467.84;;;32.17;32.87
59787;BME280;45672;51.612;5.536;2022-08-24T16:16:12;101464.91;;;32.03;33.51
59787;BME280;45672;51.612;5.536;2022-08-24T16:18:43;101471.91;;;31.85;33.02
59787;BME280;45672;51.612;5.536;2022-08-24T16:21:14;101472.19;;;31.78;33.71
59787;BME280;45672;51.612;5.536;2022-08-24T16:23:43;101468.34;;;31.84;33.43
59787;BME280;45672;51.612;5.536;2022-08-24T16:29:49;101464.94;;;31.97;33.31
59787;BME280;45672;51.612;5.536;2022-08-24T16:34:47;101457.06;;;31.80;32.60
59787;BME280;45672;51.612;5.536;2022-08-24T16:37:14;101457.06;;;31.75;33.50
59787;BME280;45672;51.612;5.536;2022-08-24T16:39:39;101456.03;;;31.66;32.76